sensor_id;sensor_type;location;lat;lon;timestamp;P1;durP1;ratioP1;P2;durP2;ratioP2
3573;SDS011;1801;51.050;6.246;2023-07-22T00:00:40;15.53;;;7.50;;
3573;SDS011;1801;51.050;6.246;2023-07-22T00:03:05;13.80;;;7.93;;
3573;SDS011;1801;51.050;6.246;2023-07-22T00:05:30;17.20;;;7.70;;
3573;SDS011;1801;51.050;6.246;2023-07-22T00:07:55;16.80;;;8.27;;
3573;SDS011;1801;51.050;6.246;2023-07-22T00:10:21;14.10;;;7.37;;
3573;SDS011;1801;51.050;6.246;2023-07-22T00:12:46;15.33;;;8.50;;
3573;SDS011;1801;51.050;6.246;2023-07-22T00:15:11;16.27;;;8.67;;
3573;SDS011;1801;51.050;6.246;2023-07-22T00:17:37;18.43;;;7.87;;
3573;SDS011;1801;51.050;6.246;2023-07-22T00:20:02;18.03;;;7.97;;
3573;SDS011;1801;51.050;6.246;2023-07-22T00:22:29;14.20;;;6.90;;
3573;SDS011;1801;51.050;6.246;2023-07-22T00:24:54;17.97;;;7.47;;
3573;SDS011;1801;51.050;6.246;2023-07-22T00:27:19;12.30;;;7.20;;
3573;SDS011;1801;51.050;6.246;2023-07-22T00:29:44;15.37;;;7.10;;
3573;SDS011;1801;51.050;6.246;2023-07-22T00:32:10;15.40;;;8.13;;
3573;SDS011;1801;51.050;6.246;2023-07-22T00:34:35;13.87;;;6.67;;
3573;SDS011;1801;51.050;6.246;2023-07-22T00:37:01;14.63;;;7.47;;
3573;SDS011;1801;51.050;6.246;2023-07-22T00:39:27;16.37;;;7.57;;
3573;SDS011;1801;51.050;6.246;2023-07-22T00:41:52;15.00;;;7.30;;
3573;SDS011;1801;51.050;6.246;2023-07-22T00:44:17;17.43;;;8.13;;
3573;SDS011;1801;51.050;6.246;2023-07-22T00:46:43;16.93;;;8.07;;
3573;SDS011;1801;51.050;6.246;2023-07-22T00:49:09;12.90;;;6.50;;
3573;SDS011;1801;51.050;6.246;2023-07-22T00:51:35;18.00;;;8.00;;
3573;SDS011;1801;51.050;6.246;2023-07-22T00:54:00;16.40;;;7.63;;
3573;SDS011;1801;51.050;6.246;2023-07-22T00:56:25;13.97;;;6.83;;
3573;SDS011;1801;51.050;6.246;2023-07-22T00:58:50;13.23;;;7.03;;
3573;SDS011;1801;51.050;6.246;2023-07-22T01:01:16;13.10;;;7.23;;
3573;SDS011;1801;51.050;6.246;2023-07-22T01:03:41;14.40;;;7.00;;
3573;SDS011;1801;51.050;6.246;2023-07-22T01:06:07;16.23;;;6.97;;
3573;SDS011;1801;51.050;6.246;2023-07-22T01:08:32;14.47;;;6.70;;
3573;SDS011;1801;51.050;6.246;2023-07-22T01:10:57;12.77;;;7.20;;
3573;SDS011;1801;51.050;6.246;2023-07-22T01:13:24;15.23;;;6.03;;
3573;SDS011;1801;51.050;6.246;2023-07-22T01:15:49;11.40;;;5.87;;
3573;SDS011;1801;51.050;6.246;2023-07-22T01:18:14;14.23;;;7.23;;
3573;SDS011;1801;51.050;6.246;2023-07-22T01:20:40;16.53;;;7.77;;
3573;SDS011;1801;51.050;6.246;2023-07-22T01:23:05;16.10;;;8.30;;
3573;SDS011;1801;51.050;6.246;2023-07-22T01:25:31;13.30;;;6.73;;
3573;SDS011;1801;51.050;6.246;2023-07-22T01:27:57;16.87;;;7.70;;
3573;SDS011;1801;51.050;6.246;2023-07-22T01:30:22;13.93;;;7.30;;
3573;SDS011;1801;51.050;6.246;2023-07-22T01:32:47;14.50;;;6.23;;
3573;SDS011;1801;51.050;6.246;2023-07-22T01:35:12;12.80;;;6.93;;
3573;SDS011;1801;51.050;6.246;2023-07-22T01:37:38;19.33;;;7.43;;
3573;SDS011;1801;51.050;6.246;2023-07-22T01:40:03;12.40;;;7.10;;
3573;SDS011;1801;51.050;6.246;2023-07-22T01:42:41;12.30;;;7.60;;
3573;SDS011;1801;51.050;6.246;2023-07-22T01:45:07;13.90;;;7.07;;
3573;SDS011;1801;51.050;6.246;2023-07-22T01:47:35;14.27;;;7.57;;
3573;SDS011;1801;51.050;6.246;2023-07-22T01:50:04;13.80;;;6.50;;
3573;SDS011;1801;51.050;6.246;2023-07-22T01:52:31;13.97;;;7.10;;
3573;SDS011;1801;51.050;6.246;2023-07-22T01:54:56;16.03;;;6.60;;
3573;SDS011;1801;51.050;6.246;2023-07-22T01:57:21;14.53;;;6.37;;
3573;SDS011;1801;51.050;6.246;2023-07-22T01:59:46;13.83;;;6.60;;
3573;SDS011;1801;51.050;6.246;2023-07-22T02:02:12;18.03;;;6.40;;
3573;SDS011;1801;51.050;6.246;2023-07-22T02:04:37;11.70;;;5.87;;
3573;SDS011;1801;51.050;6.246;2023-07-22T02:07:02;17.63;;;6.73;;
3573;SDS011;1801;51.050;6.246;2023-07-22T02:09:28;21.20;;;7.77;;
3573;SDS011;1801;51.050;6.246;2023-07-22T02:11:53;15.70;;;7.27;;
3573;SDS011;1801;51.050;6.246;2023-07-22T02:14:18;14.17;;;7.00;;
3573;SDS011;1801;51.050;6.246;2023-07-22T02:16:44;12.10;;;6.93;;
3573;SDS011;1801;51.050;6.246;2023-07-22T02:19:09;16.10;;;7.90;;
3573;SDS011;1801;51.050;6.246;2023-07-22T02:21:34;16.13;;;7.23;;
3573;SDS011;1801;51.050;6.246;2023-07-22T02:23:59;14.03;;;6.50;;
3573;SDS011;1801;51.050;6.246;2023-07-22T02:26:24;12.90;;;6.90;;
3573;SDS011;1801;51.050;6.246;2023-07-22T02:28:50;14.50;;;6.37;;
3573;SDS011;1801;51.050;6.246;2023-07-22T02:31:15;12.40;;;7.07;;
3573;SDS011;1801;51.050;6.246;2023-07-22T02:33:40;12.97;;;7.00;;
3573;SDS011;1801;51.050;6.246;2023-07-22T02:36:05;14.37;;;7.10;;
3573;SDS011;1801;51.050;6.246;2023-07-22T02:38:31;15.47;;;6.80;;
3573;SDS011;1801;51.050;6.246;2023-07-22T02:43:31;10.87;;;6.50;;
3573;SDS011;1801;51.050;6.246;2023-07-22T02:45:56;13.47;;;7.37;;
3573;SDS011;1801;51.050;6.246;2023-07-22T02:48:22;15.83;;;7.57;;
3573;SDS011;1801;51.050;6.246;2023-07-22T02:50:47;15.53;;;7.60;;
3573;SDS011;1801;51.050;6.246;2023-07-22T02:53:12;12.30;;;6.90;;
3573;SDS011;1801;51.050;6.246;2023-07-22T02:55:37;17.07;;;8.17;;
3573;SDS011;1801;51.050;6.246;2023-07-22T02:58:03;15.40;;;6.20;;
3573;SDS011;1801;51.050;6.246;2023-07-22T03:00:28;15.60;;;7.07;;
3573;SDS011;1801;51.050;6.246;2023-07-22T03:02:53;16.43;;;6.87;;
3573;SDS011;1801;51.050;6.246;2023-07-22T03:05:20;13.33;;;6.50;;
3573;SDS011;1801;51.050;6.246;2023-07-22T03:07:46;18.30;;;7.10;;
3573;SDS011;1801;51.050;6.246;2023-07-22T03:10:11;12.53;;;6.60;;
3573;SDS011;1801;51.050;6.246;2023-07-22T03:12:36;15.90;;;7.20;;
3573;SDS011;1801;51.050;6.246;2023-07-22T03:15:02;10.80;;;6.40;;
3573;SDS011;1801;51.050;6.246;2023-07-22T03:17:29;14.73;;;8.13;;
3573;SDS011;1801;51.050;6.246;2023-07-22T03:19:54;12.60;;;6.90;;
3573;SDS011;1801;51.050;6.246;2023-07-22T03:22:19;15.00;;;8.23;;
3573;SDS011;1801;51.050;6.246;2023-07-22T03:24:45;16.80;;;6.30;;
3573;SDS011;1801;51.050;6.246;2023-07-22T03:27:10;13.73;;;6.60;;
3573;SDS011;1801;51.050;6.246;2023-07-22T03:29:35;13.43;;;7.60;;
3573;SDS011;1801;51.050;6.246;2023-07-22T03:32:01;12.87;;;6.70;;
3573;SDS011;1801;51.050;6.246;2023-07-22T03:34:26;18.10;;;7.20;;
3573;SDS011;1801;51.050;6.246;2023-07-22T03:36:52;21.20;;;8.10;;
3573;SDS011;1801;51.050;6.246;2023-07-22T03:39:17;14.00;;;6.90;;
3573;SDS011;1801;51.050;6.246;2023-07-22T03:41:42;14.77;;;7.43;;
3573;SDS011;1801;51.050;6.246;2023-07-22T03:44:07;14.07;;;7.47;;
3573;SDS011;1801;51.050;6.246;2023-07-22T03:46:32;14.93;;;6.77;;
3573;SDS011;1801;51.050;6.246;2023-07-22T03:48:58;16.10;;;7.67;;
3573;SDS011;1801;51.050;6.246;2023-07-22T03:51:23;18.33;;;8.10;;
3573;SDS011;1801;51.050;6.246;2023-07-22T03:53:48;16.73;;;7.10;;
3573;SDS011;1801;51.050;6.246;2023-07-22T03:56:13;10.97;;;6.10;;
3573;SDS011;1801;51.050;6.246;2023-07-22T03:58:38;14.50;;;6.77;;
3573;SDS011;1801;51.050;6.246;2023-07-22T04:01:03;17.90;;;7.83;;
3573;SDS011;1801;51.050;6.246;2023-07-22T04:03:29;13.13;;;6.80;;
3573;SDS011;1801;51.050;6.246;2023-07-22T04:05:57;15.93;;;7.90;;
3573;SDS011;1801;51.050;6.246;2023-07-22T04:08:22;15.80;;;7.03;;
3573;SDS011;1801;51.050;6.246;2023-07-22T04:10:57;19.93;;;7.60;;
3573;SDS011;1801;51.050;6.246;2023-07-22T04:13:22;14.07;;;7.20;;
3573;SDS011;1801;51.050;6.246;2023-07-22T04:15:48;17.10;;;8.60;;
3573;SDS011;1801;51.050;6.246;2023-07-22T04:18:14;19.90;;;7.93;;
3573;SDS011;1801;51.050;6.246;2023-07-22T04:20:40;16.67;;;7.63;;
3573;SDS011;1801;51.050;6.246;2023-07-22T04:23:06;16.97;;;7.20;;
3573;SDS011;1801;51.050;6.246;2023-07-22T04:25:31;14.30;;;7.90;;
3573;SDS011;1801;51.050;6.246;2023-07-22T04:27:56;16.20;;;7.53;;
3573;SDS011;1801;51.050;6.246;2023-07-22T04:30:21;16.90;;;7.37;;
3573;SDS011;1801;51.050;6.246;2023-07-22T04:32:47;15.50;;;7.10;;
3573;SDS011;1801;51.050;6.246;2023-07-22T04:35:13;16.20;;;7.60;;
3573;SDS011;1801;51.050;6.246;2023-07-22T04:37:38;16.20;;;7.27;;
3573;SDS011;1801;51.050;6.246;2023-07-22T04:40:03;20.30;;;7.27;;
3573;SDS011;1801;51.050;6.246;2023-07-22T04:42:31;13.33;;;7.57;;
3573;SDS011;1801;51.050;6.246;2023-07-22T04:44:56;15.63;;;7.10;;
3573;SDS011;1801;51.050;6.246;2023-07-22T04:47:21;13.97;;;6.70;;
3573;SDS011;1801;51.050;6.246;2023-07-22T04:49:46;14.40;;;7.10;;
3573;SDS011;1801;51.050;6.246;2023-07-22T04:52:12;12.17;;;6.37;;
3573;SDS011;1801;51.050;6.246;2023-07-22T04:54:37;15.80;;;8.03;;
3573;SDS011;1801;51.050;6.246;2023-07-22T04:57:02;17.13;;;7.27;;
3573;SDS011;1801;51.050;6.246;2023-07-22T04:59:28;18.30;;;7.83;;
3573;SDS011;1801;51.050;6.246;2023-07-22T05:01:53;14.67;;;7.47;;
3573;SDS011;1801;51.050;6.246;2023-07-22T05:04:18;15.20;;;8.27;;
3573;SDS011;1801;51.050;6.246;2023-07-22T05:06:43;13.43;;;7.13;;
3573;SDS011;1801;51.050;6.246;2023-07-22T05:09:09;16.13;;;8.80;;
3573;SDS011;1801;51.050;6.246;2023-07-22T05:11:34;18.03;;;7.87;;
3573;SDS011;1801;51.050;6.246;2023-07-22T05:13:59;14.20;;;6.60;;
3573;SDS011;1801;51.050;6.246;2023-07-22T05:16:24;12.80;;;7.03;;
3573;SDS011;1801;51.050;6.246;2023-07-22T05:18:49;11.90;;;7.70;;
3573;SDS011;1801;51.050;6.246;2023-07-22T05:21:15;13.40;;;6.47;;
3573;SDS011;1801;51.050;6.246;2023-07-22T05:23:40;11.50;;;6.00;;
3573;SDS011;1801;51.050;6.246;2023-07-22T05:26:05;19.70;;;7.10;;
3573;SDS011;1801;51.050;6.246;2023-07-22T05:28:30;19.33;;;9.03;;
3573;SDS011;1801;51.050;6.246;2023-07-22T05:30:56;13.97;;;7.60;;
3573;SDS011;1801;51.050;6.246;2023-07-22T05:33:21;16.90;;;6.60;;
3573;SDS011;1801;51.050;6.246;2023-07-22T05:35:46;15.03;;;7.37;;
3573;SDS011;1801;51.050;6.246;2023-07-22T05:38:11;11.80;;;6.77;;
3573;SDS011;1801;51.050;6.246;2023-07-22T05:40:36;15.97;;;7.80;;
3573;SDS011;1801;51.050;6.246;2023-07-22T05:43:01;12.87;;;6.97;;
3573;SDS011;1801;51.050;6.246;2023-07-22T05:45:27;10.50;;;5.90;;
3573;SDS011;1801;51.050;6.246;2023-07-22T05:47:53;13.47;;;7.20;;
3573;SDS011;1801;51.050;6.246;2023-07-22T05:50:18;12.40;;;7.17;;
3573;SDS011;1801;51.050;6.246;2023-07-22T05:52:43;11.13;;;6.67;;
3573;SDS011;1801;51.050;6.246;2023-07-22T05:55:08;12.27;;;6.93;;
3573;SDS011;1801;51.050;6.246;2023-07-22T05:57:34;10.67;;;5.97;;
3573;SDS011;1801;51.050;6.246;2023-07-22T05:59:59;15.40;;;6.93;;
3573;SDS011;1801;51.050;6.246;2023-07-22T06:02:25;13.27;;;7.10;;
3573;SDS011;1801;51.050;6.246;2023-07-22T06:04:50;15.73;;;7.00;;
3573;SDS011;1801;51.050;6.246;2023-07-22T06:07:15;17.40;;;7.13;;
3573;SDS011;1801;51.050;6.246;2023-07-22T06:09:40;16.23;;;7.80;;
3573;SDS011;1801;51.050;6.246;2023-07-22T06:12:05;15.90;;;7.03;;
3573;SDS011;1801;51.050;6.246;2023-07-22T06:14:31;10.30;;;6.57;;
3573;SDS011;1801;51.050;6.246;2023-07-22T06:16:56;12.40;;;7.30;;
3573;SDS011;1801;51.050;6.246;2023-07-22T06:19:21;13.10;;;6.90;;
3573;SDS011;1801;51.050;6.246;2023-07-22T06:21:48;15.60;;;7.63;;
3573;SDS011;1801;51.050;6.246;2023-07-22T06:24:13;14.30;;;8.27;;
3573;SDS011;1801;51.050;6.246;2023-07-22T06:26:38;16.90;;;8.50;;
3573;SDS011;1801;51.050;6.246;2023-07-22T06:29:04;28.53;;;8.77;;
3573;SDS011;1801;51.050;6.246;2023-07-22T06:31:29;17.20;;;7.40;;
3573;SDS011;1801;51.050;6.246;2023-07-22T06:33:56;17.30;;;7.77;;
3573;SDS011;1801;51.050;6.246;2023-07-22T06:36:21;13.23;;;8.00;;
3573;SDS011;1801;51.050;6.246;2023-07-22T06:38:47;20.47;;;8.87;;
3573;SDS011;1801;51.050;6.246;2023-07-22T06:41:12;15.13;;;7.93;;
3573;SDS011;1801;51.050;6.246;2023-07-22T06:43:37;16.53;;;8.03;;
3573;SDS011;1801;51.050;6.246;2023-07-22T06:46:02;17.13;;;7.33;;
3573;SDS011;1801;51.050;6.246;2023-07-22T06:48:28;16.30;;;8.60;;
3573;SDS011;1801;51.050;6.246;2023-07-22T06:50:53;15.53;;;7.60;;
3573;SDS011;1801;51.050;6.246;2023-07-22T06:53:18;22.73;;;7.47;;
3573;SDS011;1801;51.050;6.246;2023-07-22T06:55:50;15.17;;;7.00;;
3573;SDS011;1801;51.050;6.246;2023-07-22T06:58:16;15.37;;;7.83;;
3573;SDS011;1801;51.050;6.246;2023-07-22T07:00:41;16.57;;;8.30;;
3573;SDS011;1801;51.050;6.246;2023-07-22T07:03:06;20.67;;;8.00;;
3573;SDS011;1801;51.050;6.246;2023-07-22T07:05:31;17.50;;;8.77;;
3573;SDS011;1801;51.050;6.246;2023-07-22T07:07:56;16.40;;;8.43;;
3573;SDS011;1801;51.050;6.246;2023-07-22T07:10:22;20.67;;;7.80;;
3573;SDS011;1801;51.050;6.246;2023-07-22T07:12:47;20.07;;;8.13;;
3573;SDS011;1801;51.050;6.246;2023-07-22T07:15:12;16.43;;;7.47;;
3573;SDS011;1801;51.050;6.246;2023-07-22T07:17:37;11.00;;;6.87;;
3573;SDS011;1801;51.050;6.246;2023-07-22T07:20:03;15.97;;;7.83;;
3573;SDS011;1801;51.050;6.246;2023-07-22T07:22:28;15.10;;;9.03;;
3573;SDS011;1801;51.050;6.246;2023-07-22T07:24:53;15.57;;;6.80;;
3573;SDS011;1801;51.050;6.246;2023-07-22T07:27:18;16.00;;;8.17;;
3573;SDS011;1801;51.050;6.246;2023-07-22T07:29:44;13.70;;;7.00;;
3573;SDS011;1801;51.050;6.246;2023-07-22T07:32:09;12.07;;;6.73;;
3573;SDS011;1801;51.050;6.246;2023-07-22T07:34:34;14.23;;;7.20;;
3573;SDS011;1801;51.050;6.246;2023-07-22T07:37:00;13.23;;;6.90;;
3573;SDS011;1801;51.050;6.246;2023-07-22T07:39:25;12.60;;;5.90;;
3573;SDS011;1801;51.050;6.246;2023-07-22T07:41:50;11.77;;;6.10;;
3573;SDS011;1801;51.050;6.246;2023-07-22T07:44:15;14.83;;;7.30;;
3573;SDS011;1801;51.050;6.246;2023-07-22T07:46:41;16.70;;;6.40;;
3573;SDS011;1801;51.050;6.246;2023-07-22T07:49:06;12.23;;;6.23;;
3573;SDS011;1801;51.050;6.246;2023-07-22T07:51:31;14.73;;;7.00;;
3573;SDS011;1801;51.050;6.246;2023-07-22T07:53:57;11.23;;;5.77;;
3573;SDS011;1801;51.050;6.246;2023-07-22T07:56:23;10.17;;;5.30;;
3573;SDS011;1801;51.050;6.246;2023-07-22T07:58:49;12.70;;;5.80;;
3573;SDS011;1801;51.050;6.246;2023-07-22T08:01:14;13.10;;;6.17;;
3573;SDS011;1801;51.050;6.246;2023-07-22T08:03:40;13.80;;;6.70;;
3573;SDS011;1801;51.050;6.246;2023-07-22T08:06:06;8.70;;;4.00;;
3573;SDS011;1801;51.050;6.246;2023-07-22T08:08:32;11.13;;;5.10;;
3573;SDS011;1801;51.050;6.246;2023-07-22T08:11:01;9.30;;;4.30;;
3573;SDS011;1801;51.050;6.246;2023-07-22T08:13:26;10.07;;;4.10;;
3573;SDS011;1801;51.050;6.246;2023-07-22T08:15:53;9.57;;;4.33;;
3573;SDS011;1801;51.050;6.246;2023-07-22T08:18:18;8.50;;;4.20;;
3573;SDS011;1801;51.050;6.246;2023-07-22T08:20:43;6.63;;;3.90;;
3573;SDS011;1801;51.050;6.246;2023-07-22T08:23:09;9.17;;;4.97;;
3573;SDS011;1801;51.050;6.246;2023-07-22T08:25:34;7.40;;;4.90;;
3573;SDS011;1801;51.050;6.246;2023-07-22T08:27:59;4.93;;;3.17;;
3573;SDS011;1801;51.050;6.246;2023-07-22T08:30:24;6.40;;;3.10;;
3573;SDS011;1801;51.050;6.246;2023-07-22T08:32:50;9.30;;;3.93;;
3573;SDS011;1801;51.050;6.246;2023-07-22T08:35:15;5.80;;;4.73;;
3573;SDS011;1801;51.050;6.246;2023-07-22T08:37:42;6.73;;;3.80;;
3573;SDS011;1801;51.050;6.246;2023-07-22T08:40:08;12.23;;;4.80;;
3573;SDS011;1801;51.050;6.246;2023-07-22T08:42:33;7.63;;;3.57;;
3573;SDS011;1801;51.050;6.246;2023-07-22T08:45:00;8.60;;;3.77;;
3573;SDS011;1801;51.050;6.246;2023-07-22T08:47:26;7.07;;;4.30;;
3573;SDS011;1801;51.050;6.246;2023-07-22T08:49:53;10.30;;;4.13;;
3573;SDS011;1801;51.050;6.246;2023-07-22T08:52:22;13.07;;;4.80;;
3573;SDS011;1801;51.050;6.246;2023-07-22T08:54:47;10.17;;;3.87;;
3573;SDS011;1801;51.050;6.246;2023-07-22T08:57:14;11.90;;;4.77;;
3573;SDS011;1801;51.050;6.246;2023-07-22T08:59:39;6.10;;;3.87;;
3573;SDS011;1801;51.050;6.246;2023-07-22T09:02:05;8.83;;;4.97;;
3573;SDS011;1801;51.050;6.246;2023-07-22T09:04:31;7.63;;;4.43;;
3573;SDS011;1801;51.050;6.246;2023-07-22T09:06:57;6.13;;;3.27;;
3573;SDS011;1801;51.050;6.246;2023-07-22T09:09:22;5.43;;;3.23;;
3573;SDS011;1801;51.050;6.246;2023-07-22T09:11:49;7.60;;;3.20;;
3573;SDS011;1801;51.050;6.246;2023-07-22T09:14:15;8.10;;;2.93;;
3573;SDS011;1801;51.050;6.246;2023-07-22T09:16:42;10.03;;;3.40;;
3573;SDS011;1801;51.050;6.246;2023-07-22T09:19:08;5.10;;;2.90;;
3573;SDS011;1801;51.050;6.246;2023-07-22T09:21:33;7.10;;;3.40;;
3573;SDS011;1801;51.050;6.246;2023-07-22T09:24:01;4.33;;;2.77;;
3573;SDS011;1801;51.050;6.246;2023-07-22T09:26:26;5.33;;;3.10;;
3573;SDS011;1801;51.050;6.246;2023-07-22T09:31:17;4.90;;;3.80;;
3573;SDS011;1801;51.050;6.246;2023-07-22T09:33:42;6.90;;;3.60;;
3573;SDS011;1801;51.050;6.246;2023-07-22T09:36:09;5.00;;;2.87;;
3573;SDS011;1801;51.050;6.246;2023-07-22T09:38:34;4.93;;;3.47;;
3573;SDS011;1801;51.050;6.246;2023-07-22T09:40:59;4.57;;;2.90;;
3573;SDS011;1801;51.050;6.246;2023-07-22T09:43:24;7.53;;;3.30;;
3573;SDS011;1801;51.050;6.246;2023-07-22T09:45:50;6.43;;;2.70;;
3573;SDS011;1801;51.050;6.246;2023-07-22T09:48:15;4.53;;;2.90;;
3573;SDS011;1801;51.050;6.246;2023-07-22T09:50:40;5.23;;;2.50;;
3573;SDS011;1801;51.050;6.246;2023-07-22T09:53:06;4.07;;;2.50;;
3573;SDS011;1801;51.050;6.246;2023-07-22T09:55:31;8.33;;;2.83;;
3573;SDS011;1801;51.050;6.246;2023-07-22T09:58:00;3.77;;;2.27;;
3573;SDS011;1801;51.050;6.246;2023-07-22T10:00:30;5.70;;;3.37;;
3573;SDS011;1801;51.050;6.246;2023-07-22T10:02:56;3.30;;;2.67;;
3573;SDS011;1801;51.050;6.246;2023-07-22T10:05:21;5.17;;;3.10;;
3573;SDS011;1801;51.050;6.246;2023-07-22T10:07:48;8.10;;;3.10;;
3573;SDS011;1801;51.050;6.246;2023-07-22T10:10:35;6.70;;;3.60;;
3573;SDS011;1801;51.050;6.246;2023-07-22T10:12:59;4.53;;;3.03;;
3573;SDS011;1801;51.050;6.246;2023-07-22T10:15:25;4.70;;;2.60;;
3573;SDS011;1801;51.050;6.246;2023-07-22T10:17:51;4.60;;;2.87;;
3573;SDS011;1801;51.050;6.246;2023-07-22T10:20:16;6.43;;;3.80;;
3573;SDS011;1801;51.050;6.246;2023-07-22T10:22:45;4.40;;;3.20;;
3573;SDS011;1801;51.050;6.246;2023-07-22T10:25:11;6.80;;;3.83;;
3573;SDS011;1801;51.050;6.246;2023-07-22T10:27:36;5.57;;;3.30;;
3573;SDS011;1801;51.050;6.246;2023-07-22T10:30:05;4.40;;;3.20;;
3573;SDS011;1801;51.050;6.246;2023-07-22T10:32:34;6.80;;;4.10;;
3573;SDS011;1801;51.050;6.246;2023-07-22T10:35:00;8.17;;;4.27;;
3573;SDS011;1801;51.050;6.246;2023-07-22T10:37:32;5.50;;;3.27;;
3573;SDS011;1801;51.050;6.246;2023-07-22T10:40:01;8.77;;;3.70;;
3573;SDS011;1801;51.050;6.246;2023-07-22T10:42:40;6.63;;;3.80;;
3573;SDS011;1801;51.050;6.246;2023-07-22T10:45:18;7.63;;;3.70;;
3573;SDS011;1801;51.050;6.246;2023-07-22T10:47:47;7.83;;;3.80;;
3573;SDS011;1801;51.050;6.246;2023-07-22T10:50:26;9.70;;;3.90;;
3573;SDS011;1801;51.050;6.246;2023-07-22T10:53:02;4.77;;;3.70;;
3573;SDS011;1801;51.050;6.246;2023-07-22T10:55:27;5.13;;;3.93;;
3573;SDS011;1801;51.050;6.246;2023-07-22T10:57:53;5.53;;;3.73;;
3573;SDS011;1801;51.050;6.246;2023-07-22T11:00:20;3.70;;;2.97;;
3573;SDS011;1801;51.050;6.246;2023-07-22T11:02:47;7.57;;;3.50;;
3573;SDS011;1801;51.050;6.246;2023-07-22T11:05:12;6.90;;;3.20;;
3573;SDS011;1801;51.050;6.246;2023-07-22T11:07:44;4.77;;;3.00;;
3573;SDS011;1801;51.050;6.246;2023-07-22T11:10:19;4.30;;;2.90;;
3573;SDS011;1801;51.050;6.246;2023-07-22T11:12:44;7.30;;;3.20;;
3573;SDS011;1801;51.050;6.246;2023-07-22T11:15:10;3.73;;;2.67;;
3573;SDS011;1801;51.050;6.246;2023-07-22T11:17:35;7.30;;;2.90;;
3573;SDS011;1801;51.050;6.246;2023-07-22T11:20:02;5.80;;;3.73;;
3573;SDS011;1801;51.050;6.246;2023-07-22T11:22:27;5.40;;;3.27;;
3573;SDS011;1801;51.050;6.246;2023-07-22T11:24:55;4.40;;;3.20;;
3573;SDS011;1801;51.050;6.246;2023-07-22T11:27:21;6.23;;;3.10;;
3573;SDS011;1801;51.050;6.246;2023-07-22T11:29:48;4.10;;;2.83;;
3573;SDS011;1801;51.050;6.246;2023-07-22T11:32:16;6.43;;;3.67;;
3573;SDS011;1801;51.050;6.246;2023-07-22T11:34:42;5.43;;;3.27;;
3573;SDS011;1801;51.050;6.246;2023-07-22T11:37:09;6.23;;;3.27;;
3573;SDS011;1801;51.050;6.246;2023-07-22T11:39:34;4.60;;;3.40;;
3573;SDS011;1801;51.050;6.246;2023-07-22T11:42:01;4.50;;;2.67;;
3573;SDS011;1801;51.050;6.246;2023-07-22T11:44:27;6.50;;;3.30;;
3573;SDS011;1801;51.050;6.246;2023-07-22T11:49:28;3.97;;;3.17;;
3573;SDS011;1801;51.050;6.246;2023-07-22T11:51:56;10.10;;;3.17;;
3573;SDS011;1801;51.050;6.246;2023-07-22T11:54:22;4.50;;;3.17;;
3573;SDS011;1801;51.050;6.246;2023-07-22T11:56:47;4.87;;;3.10;;
3573;SDS011;1801;51.050;6.246;2023-07-22T11:59:12;5.03;;;3.23;;
3573;SDS011;1801;51.050;6.246;2023-07-22T12:01:37;7.60;;;3.60;;
3573;SDS011;1801;51.050;6.246;2023-07-22T12:04:03;7.27;;;3.70;;
3573;SDS011;1801;51.050;6.246;2023-07-22T12:06:34;4.87;;;2.97;;
3573;SDS011;1801;51.050;6.246;2023-07-22T12:08:59;6.40;;;3.50;;
3573;SDS011;1801;51.050;6.246;2023-07-22T12:11:24;4.87;;;3.30;;
3573;SDS011;1801;51.050;6.246;2023-07-22T12:14:09;6.77;;;3.87;;
3573;SDS011;1801;51.050;6.246;2023-07-22T12:16:35;5.83;;;4.13;;
3573;SDS011;1801;51.050;6.246;2023-07-22T12:19:02;6.00;;;2.83;;
3573;SDS011;1801;51.050;6.246;2023-07-22T12:21:27;4.37;;;3.20;;
3573;SDS011;1801;51.050;6.246;2023-07-22T12:23:52;6.03;;;3.40;;
3573;SDS011;1801;51.050;6.246;2023-07-22T12:26:18;4.73;;;3.63;;
3573;SDS011;1801;51.050;6.246;2023-07-22T12:28:43;5.07;;;3.40;;
3573;SDS011;1801;51.050;6.246;2023-07-22T12:31:08;7.67;;;4.40;;
3573;SDS011;1801;51.050;6.246;2023-07-22T12:33:34;5.37;;;3.63;;
3573;SDS011;1801;51.050;6.246;2023-07-22T12:35:59;5.83;;;3.70;;
3573;SDS011;1801;51.050;6.246;2023-07-22T12:38:24;8.10;;;4.37;;
3573;SDS011;1801;51.050;6.246;2023-07-22T12:40:50;7.17;;;3.70;;
3573;SDS011;1801;51.050;6.246;2023-07-22T12:43:15;8.10;;;4.57;;
3573;SDS011;1801;51.050;6.246;2023-07-22T12:45:40;5.80;;;3.50;;
3573;SDS011;1801;51.050;6.246;2023-07-22T12:48:05;6.87;;;3.47;;
3573;SDS011;1801;51.050;6.246;2023-07-22T12:50:31;6.00;;;3.50;;
3573;SDS011;1801;51.050;6.246;2023-07-22T12:52:57;11.87;;;4.13;;
3573;SDS011;1801;51.050;6.246;2023-07-22T12:55:22;4.83;;;3.40;;
3573;SDS011;1801;51.050;6.246;2023-07-22T12:57:47;5.20;;;3.77;;
3573;SDS011;1801;51.050;6.246;2023-07-22T13:00:12;6.57;;;3.53;;
3573;SDS011;1801;51.050;6.246;2023-07-22T13:02:39;7.60;;;4.00;;
3573;SDS011;1801;51.050;6.246;2023-07-22T13:05:04;6.10;;;3.30;;
3573;SDS011;1801;51.050;6.246;2023-07-22T13:07:31;6.37;;;3.60;;
3573;SDS011;1801;51.050;6.246;2023-07-22T13:09:56;8.57;;;3.37;;
3573;SDS011;1801;51.050;6.246;2023-07-22T13:12:23;6.30;;;3.87;;
3573;SDS011;1801;51.050;6.246;2023-07-22T13:14:48;7.07;;;3.43;;
3573;SDS011;1801;51.050;6.246;2023-07-22T13:17:13;11.00;;;3.63;;
3573;SDS011;1801;51.050;6.246;2023-07-22T13:19:38;6.70;;;3.67;;
3573;SDS011;1801;51.050;6.246;2023-07-22T13:22:03;6.27;;;3.40;;
3573;SDS011;1801;51.050;6.246;2023-07-22T13:24:31;7.10;;;3.33;;
3573;SDS011;1801;51.050;6.246;2023-07-22T13:26:56;5.83;;;3.23;;
3573;SDS011;1801;51.050;6.246;2023-07-22T13:29:21;5.00;;;3.50;;
3573;SDS011;1801;51.050;6.246;2023-07-22T13:31:47;4.33;;;3.60;;
3573;SDS011;1801;51.050;6.246;2023-07-22T13:34:12;5.53;;;3.00;;
3573;SDS011;1801;51.050;6.246;2023-07-22T13:36:37;4.77;;;2.93;;
3573;SDS011;1801;51.050;6.246;2023-07-22T13:39:02;5.20;;;2.97;;
3573;SDS011;1801;51.050;6.246;2023-07-22T13:41:27;4.87;;;3.00;;
3573;SDS011;1801;51.050;6.246;2023-07-22T13:43:53;5.20;;;3.70;;
3573;SDS011;1801;51.050;6.246;2023-07-22T13:46:18;5.70;;;3.00;;
3573;SDS011;1801;51.050;6.246;2023-07-22T13:48:43;5.13;;;3.60;;
3573;SDS011;1801;51.050;6.246;2023-07-22T13:51:08;6.30;;;3.30;;
3573;SDS011;1801;51.050;6.246;2023-07-22T13:53:33;6.63;;;3.17;;
3573;SDS011;1801;51.050;6.246;2023-07-22T13:55:58;5.47;;;3.30;;
3573;SDS011;1801;51.050;6.246;2023-07-22T13:58:24;7.60;;;5.33;;
3573;SDS011;1801;51.050;6.246;2023-07-22T14:00:49;4.70;;;2.90;;
3573;SDS011;1801;51.050;6.246;2023-07-22T14:03:14;5.70;;;3.00;;
3573;SDS011;1801;51.050;6.246;2023-07-22T14:05:39;5.90;;;2.90;;
3573;SDS011;1801;51.050;6.246;2023-07-22T14:08:04;5.50;;;2.90;;
3573;SDS011;1801;51.050;6.246;2023-07-22T14:10:30;10.10;;;2.60;;
3573;SDS011;1801;51.050;6.246;2023-07-22T14:12:55;4.83;;;3.90;;
3573;SDS011;1801;51.050;6.246;2023-07-22T14:15:20;3.70;;;3.03;;
3573;SDS011;1801;51.050;6.246;2023-07-22T14:17:45;4.40;;;2.50;;
3573;SDS011;1801;51.050;6.246;2023-07-22T14:20:11;7.40;;;3.07;;
3573;SDS011;1801;51.050;6.246;2023-07-22T14:22:39;8.03;;;2.43;;
3573;SDS011;1801;51.050;6.246;2023-07-22T14:25:05;3.00;;;2.13;;
3573;SDS011;1801;51.050;6.246;2023-07-22T14:27:30;4.10;;;2.20;;
3573;SDS011;1801;51.050;6.246;2023-07-22T14:29:55;5.50;;;2.70;;
3573;SDS011;1801;51.050;6.246;2023-07-22T14:32:20;3.83;;;2.00;;
3573;SDS011;1801;51.050;6.246;2023-07-22T14:34:46;4.87;;;2.33;;
3573;SDS011;1801;51.050;6.246;2023-07-22T14:37:12;7.77;;;2.70;;
3573;SDS011;1801;51.050;6.246;2023-07-22T14:39:37;3.70;;;2.20;;
3573;SDS011;1801;51.050;6.246;2023-07-22T14:42:02;3.10;;;1.90;;
3573;SDS011;1801;51.050;6.246;2023-07-22T14:44:27;4.17;;;2.40;;
3573;SDS011;1801;51.050;6.246;2023-07-22T14:46:52;5.03;;;1.90;;
3573;SDS011;1801;51.050;6.246;2023-07-22T14:49:18;3.43;;;2.37;;
3573;SDS011;1801;51.050;6.246;2023-07-22T14:51:43;4.47;;;2.20;;
3573;SDS011;1801;51.050;6.246;2023-07-22T14:54:08;5.10;;;2.70;;
3573;SDS011;1801;51.050;6.246;2023-07-22T14:56:33;3.90;;;2.80;;
3573;SDS011;1801;51.050;6.246;2023-07-22T14:58:59;3.70;;;2.47;;
3573;SDS011;1801;51.050;6.246;2023-07-22T15:01:24;3.60;;;2.07;;
3573;SDS011;1801;51.050;6.246;2023-07-22T15:03:49;3.20;;;2.17;;
3573;SDS011;1801;51.050;6.246;2023-07-22T15:06:14;3.50;;;2.10;;